Ana Sayfa
METAR-TAF:

METAR-TAF

Havaalanları :

Elk Valley

Sparwood, İngiliz Kolombiyası, Kanada

Enlem: 49-45N, Boylam: 114-53W, yükseklik: 1138 m

Güncel hava durumu gözlemi

Rapor saat 00:00 UTC de 11 saat ve 25 dakika önce yapıldı.
Rüzgar güneydan 10 kt, güney/güneydoğu ve güneybatı arasında değişken
Sıcaklık 0°C
Nem 74%
Basınç 1015 hPa
Görüş mesafesi: 32.2 km
2200 ft yükseklikte az bulutlu
4400 ft yükseklikte parçalı çok bulutlu
22000 ft yükseklikte parçalı çok bulutlu

METAR: CWSW 120000Z 18010KT 160V230 20SM FEW022 BKN044 BKN220 00/M04 A2998 RMK SC1SC6CI1 SC TR LAST STFD OBS/NXT 121400Z SLP195

Saat: 04:25 (11:25 UTC)


TAF: eksik

4.000'den fazla havaalanı için hava durumu gözlemleri ve tahminleri (METAR ve TAF raporları).

Kullanılabilir istasyonlar harita üzerinde sarı ve kırmızı noktalarla gösterilir.

İstasyonun adını görmek için fareyi noktanın üzerinde gezdirin.

Sonrasında hava gözlem ve tahminlerini görmek için tıklayın.

Haritayı değiştirmek için: yaklaştırmak için siyah artı işaretli yeşil düğmeye ve uzaklaştırmak için de eksi işaretli düğmeye hızla tıklayın; bitişik haritalar için yeşil okları kullanın.


METAR-TAF: